Time;durP1;ratioP1;P1;durP2;ratioP2;P2;SDS_P1;SDS_P2;PMS_P1;PMS_P2;Temp;Humidity;BMP_temperature;BMP_pressure;BME280_temperature;BME280_humidity;BME280_pressure;Samples;Min_cycle;Max_cycle;Signal;HPM_P1;HPM_P2
2022/11/03 00:02:17;;;;;;;;;1.33;1.00;;;;;17.56;63.49;-19678.00;5058930;28;45433;-73
2022/11/03 00:04:42;;;;;;;;;3.00;1.33;;;;;17.48;63.27;-19676.00;5059501;28;45386;-72
2022/11/03 00:07:08;;;;;;;;;1.67;1.67;;;;;17.54;63.40;-19677.63;5040913;28;45333;-72
2022/11/03 00:09:34;;;;;;;;;1.00;1.00;;;;;17.47;63.51;-19675.88;5059334;28;45377;-72
2022/11/03 00:12:00;;;;;;;;;5.00;2.00;;;;;17.54;63.44;-19677.63;5059187;28;45452;-72
2022/11/03 00:14:27;;;;;;;;;1.00;1.00;;;;;17.48;63.63;-19676.13;5059252;28;45398;-72
2022/11/03 00:16:53;;;;;;;;;3.00;2.00;;;;;17.48;63.70;-19676.00;5059467;28;45402;-72
2022/11/03 00:19:19;;;;;;;;;1.67;1.67;;;;;17.45;63.97;-19675.34;5059049;28;46271;-72
2022/11/03 00:21:45;;;;;;;;;1.00;1.00;;;;;17.47;64.33;-19675.88;5037345;28;45576;-72
2022/11/03 00:24:11;;;;;;;;;1.00;1.00;;;;;17.49;63.87;-19676.28;5049459;28;45365;-72
2022/11/03 00:26:38;;;;;;;;;0.67;0.67;;;;;17.51;64.19;-19676.94;5037984;28;45557;-72
2022/11/03 00:29:12;;;;;;;;;1.00;1.00;;;;;17.41;63.81;-19674.13;5045196;28;45530;-72
2022/11/03 00:31:39;;;;;;;;;2.67;1.33;;;;;17.54;63.75;-19677.47;5058612;28;45421;-71
2022/11/03 00:34:06;;;;;;;;;2.00;2.00;;;;;17.34;63.95;-19672.25;5030621;28;46424;-71
2022/11/03 00:36:42;;;;;;;;;2.67;2.00;;;;;17.47;63.82;-19675.88;5058672;28;45556;-71
2022/11/03 00:39:08;;;;;;;;;0.67;0.67;;;;;17.52;64.11;-19677.22;5053909;28;45667;-74
2022/11/03 00:41:34;;;;;;;;;1.33;1.00;;;;;17.47;64.25;-19675.75;5052457;28;46417;-71
2022/11/03 00:44:00;;;;;;;;;1.00;1.00;;;;;17.34;64.30;-19672.41;5047597;28;45634;-71
2022/11/03 00:46:26;;;;;;;;;1.67;1.00;;;;;17.33;63.85;-19672.00;5037313;28;45515;-71
2022/11/03 00:48:51;;;;;;;;;1.67;1.67;;;;;17.37;64.17;-19673.06;5057536;28;45501;-71
2022/11/03 00:51:22;;;;;;;;;3.67;1.00;;;;;17.37;64.41;-19673.19;5057440;28;45417;-71
2022/11/03 00:53:55;;;;;;;;;3.00;1.67;;;;;17.34;64.11;-19672.25;5057560;28;45500;-71
2022/11/03 00:56:22;;;;;;;;;5.00;3.00;;;;;17.36;64.26;-19672.94;5051538;28;46402;-71
2022/11/03 00:58:49;;;;;;;;;2.67;2.00;;;;;17.36;64.24;-19672.94;5057273;28;45302;-71
2022/11/03 01:01:24;;;;;;;;;2.67;2.67;;;;;17.21;64.14;-19668.91;5056019;28;45380;-74
2022/11/03 01:06:56;;;;;;;;;2.67;2.33;;;;;17.30;64.44;-19671.47;5011986;28;45513;-70
2022/11/03 01:09:32;;;;;;;;;3.00;2.00;;;;;16.95;64.23;-19662.09;4997258;28;47723;-85
2022/11/03 01:12:10;;;;;;;;;5.00;1.00;;;;;17.01;64.50;-19663.81;4992068;28;45546;-88
2022/11/03 01:14:46;;;;;;;;;2.33;2.00;;;;;17.26;64.58;-19670.38;5007913;28;45636;-87
2022/11/03 01:17:23;;;;;;;;;2.00;0.00;;;;;17.24;64.68;-19669.84;5015824;28;45534;-89
2022/11/03 01:19:48;;;;;;;;;2.67;2.00;;;;;17.24;64.39;-19669.72;5009793;28;45907;-87
2022/11/03 01:22:15;;;;;;;;;5.00;3.00;;;;;17.32;64.22;-19671.84;5012926;28;46336;-88
2022/11/03 01:24:42;;;;;;;;;3.00;2.00;;;;;17.24;64.38;-19669.72;5015327;28;45437;-88
2022/11/03 01:27:14;;;;;;;;;1.67;1.67;;;;;17.20;64.46;-19668.66;5007148;28;45694;-88
2022/11/03 01:29:40;;;;;;;;;4.00;2.33;;;;;17.20;64.49;-19668.66;5012332;28;46098;-88
2022/11/03 01:32:07;;;;;;;;;1.67;1.67;;;;;17.17;64.55;-19667.84;5010403;28;45638;-87
2022/11/03 01:34:32;;;;;;;;;2.00;2.00;;;;;17.19;64.70;-19668.38;5010677;28;45489;-88
2022/11/03 01:36:58;;;;;;;;;2.00;1.00;;;;;17.08;64.87;-19665.69;5014726;28;45546;-88
2022/11/03 01:39:24;;;;;;;;;3.00;2.00;;;;;16.60;64.52;-19653.13;4995048;28;46323;-88
2022/11/03 01:41:51;;;;;;;;;3.00;2.33;;;;;17.10;64.52;-19666.09;5034444;28;45503;-88
2022/11/03 01:44:16;;;;;;;;;3.00;1.67;;;;;17.15;64.67;-19667.44;5057039;28;45501;-82
2022/11/03 01:47:07;;;;;;;;;2.00;2.00;;;;;17.13;64.83;-19666.91;5057409;28;45326;-89
2022/11/03 01:49:40;;;;;;;;;2.67;1.00;;;;;17.14;64.96;-19667.03;5056723;28;46474;-84
2022/11/03 01:52:21;;;;;;;;;3.33;3.00;;;;;17.07;64.78;-19665.31;5055992;28;45479;-85
2022/11/03 01:54:53;;;;;;;;;1.67;1.67;;;;;17.17;64.45;-19667.84;5057409;28;45530;-84
2022/11/03 01:57:26;;;;;;;;;3.00;1.00;;;;;17.12;64.64;-19666.63;5052131;28;45530;-82
2022/11/03 01:59:54;;;;;;;;;2.00;2.00;;;;;17.10;64.76;-19666.09;5051465;28;46222;-83
2022/11/03 02:02:20;;;;;;;;;3.00;1.33;;;;;17.10;64.63;-19666.09;5049750;28;45583;-81
2022/11/03 02:04:45;;;;;;;;;2.00;2.00;;;;;17.05;64.49;-19664.78;5048211;28;45707;-81
2022/11/03 02:07:26;;;;;;;;;6.00;3.00;;;;;16.68;65.54;-19655.13;5046232;28;45501;-81
2022/11/03 02:09:52;;;;;;;;;4.00;3.00;;;;;16.14;65.97;-19641.06;5049938;28;47661;-81
2022/11/03 02:12:20;;;;;;;;;1.33;1.33;;;;;16.34;66.16;-19646.28;5050604;28;46385;-81
2022/11/03 02:14:57;;;;;;;;;3.00;1.33;;;;;16.36;66.39;-19646.81;5051944;28;45450;-81
2022/11/03 02:17:26;;;;;;;;;5.67;2.00;;;;;16.42;66.92;-19648.28;5050765;28;45494;-81
2022/11/03 02:20:10;;;;;;;;;2.00;2.00;;;;;16.40;66.56;-19647.75;5056131;28;46616;-81
2022/11/03 02:23:13;;;;;;;;;3.00;2.00;;;;;16.37;66.59;-19646.94;5051938;28;45548;-81
2022/11/03 02:25:42;;;;;;;;;3.67;2.00;;;;;16.33;67.08;-19645.88;5054904;28;45415;-82
2022/11/03 02:28:09;;;;;;;;;3.33;2.00;;;;;16.30;67.11;-19645.22;5057121;28;45552;-81
2022/11/03 02:30:48;;;;;;;;;3.00;3.00;;;;;16.24;67.46;-19643.59;5060360;28;46447;-81
2022/11/03 02:33:42;;;;;;;;;2.00;2.00;;;;;16.27;66.71;-19644.41;5056781;28;45511;-81
2022/11/03 02:36:27;;;;;;;;;4.00;2.00;;;;;16.20;67.31;-19642.66;5055133;28;45563;-81
2022/11/03 02:38:59;;;;;;;;;1.67;1.67;;;;;16.17;67.23;-19641.84;5057149;28;45453;-81
2022/11/03 02:41:28;;;;;;;;;2.00;2.00;;;;;16.41;66.91;-19648.16;5055680;28;46210;-82
2022/11/03 02:43:56;;;;;;;;;2.67;2.00;;;;;16.48;66.69;-19649.91;5036265;28;45439;-81
2022/11/03 02:46:25;;;;;;;;;2.00;1.00;;;;;16.46;66.65;-19649.38;5056325;28;45437;-81
2022/11/03 02:48:51;;;;;;;;;4.00;2.67;;;;;16.53;66.64;-19651.09;5056916;28;45419;-81
2022/11/03 02:51:17;;;;;;;;;3.33;3.00;;;;;16.48;66.75;-19649.91;5036950;28;46002;-81
2022/11/03 02:53:55;;;;;;;;;2.67;1.33;;;;;16.33;66.42;-19645.88;5054989;28;46177;-81
2022/11/03 02:56:23;;;;;;;;;3.67;2.00;;;;;16.51;66.34;-19650.69;5056352;28;45564;-81
2022/11/03 02:59:01;;;;;;;;;2.00;1.00;;;;;16.37;66.31;-19646.94;5054194;28;45452;-81
2022/11/03 03:01:51;;;;;;;;;3.00;2.00;;;;;16.43;66.29;-19648.69;5052639;28;47363;-81
2022/11/03 03:04:32;;;;;;;;;4.00;2.00;;;;;16.51;66.33;-19650.56;5052220;28;45384;-81
2022/11/03 03:07:05;;;;;;;;;2.00;2.00;;;;;16.50;66.74;-19650.44;5056569;28;45476;-81
2022/11/03 03:09:41;;;;;;;;;2.00;2.00;;;;;16.50;66.25;-19650.44;5053701;28;45432;-81
2022/11/03 03:12:09;;;;;;;;;4.33;3.00;;;;;16.29;66.41;-19644.81;5051298;28;45499;-81
2022/11/03 03:14:38;;;;;;;;;2.00;2.00;;;;;16.46;66.72;-19649.38;5036751;28;45385;-81
2022/11/03 03:17:22;;;;;;;;;2.00;2.00;;;;;16.26;66.93;-19644.13;5054110;28;45576;-81
2022/11/03 03:20:30;;;;;;;;;2.67;2.67;;;;;16.43;66.58;-19648.56;5042442;28;45593;-81
2022/11/03 03:23:15;;;;;;;;;4.00;2.00;;;;;16.34;66.63;-19646.16;4986310;28;46558;-82
2022/11/03 03:25:45;;;;;;;;;2.00;2.00;;;;;16.32;67.13;-19645.75;4994605;28;45711;-81
2022/11/03 03:28:20;;;;;;;;;4.00;2.00;;;;;16.29;66.88;-19644.81;4992230;28;45523;-82
2022/11/03 03:30:47;;;;;;;;;3.33;2.00;;;;;16.27;66.83;-19644.28;4992860;28;45669;-82
2022/11/03 03:33:14;;;;;;;;;2.67;1.00;;;;;16.32;66.70;-19645.75;4977180;28;45578;-82
2022/11/03 03:35:44;;;;;;;;;2.67;2.00;;;;;16.35;66.78;-19646.41;4994163;28;45501;-81
2022/11/03 03:38:17;;;;;;;;;3.33;3.33;;;;;16.26;66.64;-19644.13;4993316;28;45485;-82
2022/11/03 03:40:47;;;;;;;;;2.00;2.00;;;;;16.35;66.67;-19646.41;4993940;28;45589;-82
2022/11/03 03:43:13;;;;;;;;;3.00;2.67;;;;;16.34;67.37;-19646.16;4994197;28;46236;-82
2022/11/03 03:45:42;;;;;;;;;2.00;2.00;;;;;16.30;66.87;-19645.22;4993517;28;45548;-81
2022/11/03 03:48:08;;;;;;;;;2.00;2.00;;;;;16.34;66.86;-19646.16;4997579;28;45641;-81
2022/11/03 03:50:37;;;;;;;;;7.33;4.00;;;;;16.16;66.81;-19641.47;4993769;28;45493;-82
2022/11/03 03:53:05;;;;;;;;;4.33;2.33;;;;;16.34;66.58;-19646.16;4993368;28;45569;-82
2022/11/03 03:55:37;;;;;;;;;3.33;2.67;;;;;16.29;66.80;-19644.94;4993414;28;45530;-82
2022/11/03 03:58:06;;;;;;;;;4.67;1.33;;;;;16.27;66.76;-19644.41;4994000;28;46183;-82
2022/11/03 04:00:32;;;;;;;;;5.00;2.00;;;;;16.13;66.53;-19640.78;5042729;28;45710;-82
2022/11/03 04:02:58;;;;;;;;;2.67;2.00;;;;;16.29;66.75;-19644.81;5036416;28;45552;-82
2022/11/03 04:05:25;;;;;;;;;3.67;2.00;;;;;16.32;66.44;-19645.75;5054445;28;45492;-81
2022/11/03 04:07:51;;;;;;;;;3.00;2.00;;;;;16.15;66.75;-19641.31;5052475;28;45492;-81
2022/11/03 04:10:19;;;;;;;;;5.00;2.00;;;;;16.29;66.77;-19644.94;5053208;28;45275;-71
2022/11/03 04:23:43;;;;;;;;;6.67;3.33;;;;;16.32;66.45;-19645.59;5058669;28;45393;-71
2022/11/03 04:26:15;;;;;;;;;2.67;2.00;;;;;16.35;66.51;-19646.41;5040788;28;45504;-71
2022/11/03 04:28:41;;;;;;;;;7.33;2.00;;;;;16.30;66.47;-19645.22;5059157;28;45423;-71
2022/11/03 04:31:12;;;;;;;;;3.67;2.33;;;;;16.38;66.25;-19647.34;5058333;28;45463;-71
2022/11/03 04:33:38;;;;;;;;;3.00;2.00;;;;;16.16;66.18;-19641.47;5055690;28;46153;-71
2022/11/03 04:36:11;;;;;;;;;1.67;1.67;;;;;16.35;66.52;-19646.41;5040486;28;45512;-71
2022/11/03 04:38:38;;;;;;;;;2.00;2.00;;;;;16.37;66.28;-19646.94;5057366;28;45261;-71
2022/11/03 04:41:11;;;;;;;;;2.00;2.00;;;;;16.44;66.39;-19648.97;5058691;28;45457;-71
2022/11/03 04:43:37;;;;;;;;;2.00;2.00;;;;;16.48;65.89;-19649.75;5055281;28;45531;-71
2022/11/03 04:46:05;;;;;;;;;3.33;2.00;;;;;16.49;66.22;-19650.16;5054011;28;45396;-71
2022/11/03 04:48:32;;;;;;;;;2.00;2.00;;;;;16.36;65.91;-19646.81;5057794;28;45418;-71
2022/11/03 04:51:01;;;;;;;;;4.00;2.33;;;;;16.48;65.70;-19649.75;5058712;28;45361;-71
2022/11/03 04:53:31;;;;;;;;;1.33;1.33;;;;;16.42;65.70;-19648.28;5055008;28;46366;-71
2022/11/03 04:55:56;;;;;;;;;1.33;1.33;;;;;16.41;65.78;-19648.16;5025539;28;45523;-71
2022/11/03 04:58:30;;;;;;;;;2.00;2.00;;;;;16.32;65.59;-19645.59;5048375;28;45461;-71
2022/11/03 05:00:59;;;;;;;;;2.00;2.00;;;;;16.42;65.44;-19648.28;5037113;28;45394;-71
2022/11/03 05:03:31;;;;;;;;;1.33;1.33;;;;;16.34;65.61;-19646.28;5038140;28;47632;-71
2022/11/03 05:05:57;;;;;;;;;4.00;4.00;;;;;16.41;65.32;-19648.03;5027754;28;45502;-71
2022/11/03 05:08:23;;;;;;;;;2.00;2.00;;;;;16.39;65.64;-19647.50;5057401;28;45451;-71
2022/11/03 05:10:48;;;;;;;;;1.33;1.33;;;;;16.39;65.90;-19647.63;5057504;28;45656;-71
2022/11/03 05:13:28;;;;;;;;;4.00;2.67;;;;;16.25;65.74;-19644.00;5057883;28;46214;-71
2022/11/03 05:16:02;;;;;;;;;5.00;3.33;;;;;16.36;65.52;-19646.69;5038468;28;46306;-71
2022/11/03 05:18:34;;;;;;;;;2.00;1.00;;;;;16.25;65.22;-19644.00;5056211;28;46426;-71
2022/11/03 05:21:04;;;;;;;;;4.67;2.00;;;;;16.34;65.50;-19646.16;5057236;28;45414;-71
2022/11/03 05:23:36;;;;;;;;;2.67;2.00;;;;;16.33;65.27;-19646.00;5056695;28;46087;-70
2022/11/03 05:26:02;;;;;;;;;3.67;3.00;;;;;16.32;65.25;-19645.75;5054397;28;46641;-71
2022/11/03 05:28:33;;;;;;;;;3.33;2.00;;;;;16.00;65.21;-19637.44;5054773;28;46096;-71
2022/11/03 05:30:59;;;;;;;;;1.00;1.00;;;;;16.27;65.35;-19644.28;5054289;28;45499;-71
2022/11/03 05:33:28;;;;;;;;;2.00;2.00;;;;;15.80;66.41;-19632.22;5056515;28;45489;-71
2022/11/03 05:36:01;;;;;;;;;3.00;1.33;;;;;15.51;66.79;-19624.56;5039826;28;45794;-71
2022/11/03 05:38:30;;;;;;;;;4.67;2.00;;;;;15.57;67.15;-19626.16;5057327;28;45476;-71
2022/11/03 05:40:56;;;;;;;;;3.00;1.67;;;;;15.61;67.28;-19627.09;5057471;28;45454;-71
2022/11/03 05:43:21;;;;;;;;;2.00;2.00;;;;;15.57;67.60;-19626.03;5057371;28;45342;-70
2022/11/03 05:45:51;;;;;;;;;2.00;2.00;;;;;15.59;67.61;-19626.56;5057236;28;45383;-70
2022/11/03 05:48:25;;;;;;;;;2.00;2.00;;;;;16.06;65.98;-19638.91;5057330;28;45476;-70
2022/11/03 05:50:51;;;;;;;;;3.00;2.67;;;;;16.08;65.89;-19639.31;5038680;28;45547;-70
2022/11/03 05:53:28;;;;;;;;;3.00;2.00;;;;;16.11;65.79;-19640.25;5057307;28;47259;-70
2022/11/03 05:55:57;;;;;;;;;3.00;3.00;;;;;16.09;65.73;-19639.59;5057387;28;45282;-70
2022/11/03 05:58:30;;;;;;;;;3.33;2.00;;;;;16.14;66.08;-19641.06;5057040;28;45602;-70
2022/11/03 06:00:57;;;;;;;;;4.00;3.00;;;;;16.15;65.51;-19641.19;5039309;28;45444;-70
2022/11/03 06:03:26;;;;;;;;;3.00;3.00;;;;;16.20;65.45;-19642.53;5037682;28;47725;-70
2022/11/03 06:05:52;;;;;;;;;2.33;2.33;;;;;16.15;65.31;-19641.19;5057005;28;45447;-70
2022/11/03 06:08:20;;;;;;;;;7.00;3.00;;;;;16.10;65.46;-19639.97;5055701;28;45367;-70
2022/11/03 06:10:52;;;;;;;;;4.00;3.00;;;;;16.15;65.09;-19641.19;5057662;28;45416;-82
2022/11/03 06:13:37;;;;;;;;;4.00;3.00;;;;;16.14;65.36;-19641.06;5056546;28;46192;-73
2022/11/03 06:16:25;;;;;;;;;7.33;3.67;;;;;16.12;65.24;-19640.50;5044725;28;45369;-77
2022/11/03 06:18:50;;;;;;;;;6.33;4.00;;;;;16.09;65.33;-19639.72;5016026;28;45492;-77
2022/11/03 06:21:22;;;;;;;;;4.00;2.33;;;;;16.03;65.55;-19638.25;5053994;28;45565;-74
2022/11/03 06:23:47;;;;;;;;;3.33;3.00;;;;;15.98;65.65;-19636.91;5044893;28;45453;-73
2022/11/03 06:26:19;;;;;;;;;3.00;3.00;;;;;16.02;66.06;-19637.84;5053902;28;45633;-74
2022/11/03 06:28:47;;;;;;;;;3.00;3.00;;;;;15.97;66.27;-19636.63;5057336;28;45617;-74
2022/11/03 06:31:30;;;;;;;;;4.67;3.33;;;;;15.93;65.66;-19635.44;5059027;28;45472;-74
2022/11/03 06:33:57;;;;;;;;;6.33;3.67;;;;;15.98;66.08;-19636.91;5052874;28;45434;-74
2022/11/03 06:36:40;;;;;;;;;4.67;3.00;;;;;15.79;66.28;-19631.81;5054295;28;45530;-74
2022/11/03 06:39:21;;;;;;;;;3.67;3.00;;;;;15.84;66.16;-19633.16;5053962;28;45780;-74
2022/11/03 06:41:46;;;;;;;;;3.33;3.00;;;;;15.96;66.10;-19636.34;5052545;28;46067;-74
2022/11/03 06:44:18;;;;;;;;;4.00;4.00;;;;;15.97;66.08;-19636.50;5053026;28;46984;-74
2022/11/03 06:46:44;;;;;;;;;1.00;1.00;;;;;15.88;66.22;-19634.09;5055046;28;45453;-74
2022/11/03 06:49:26;;;;;;;;;3.00;3.00;;;;;15.97;66.01;-19636.63;5054614;28;45511;-74
2022/11/03 06:51:51;;;;;;;;;3.00;3.00;;;;;16.01;65.89;-19637.72;5056000;28;45453;-74
2022/11/03 06:54:17;;;;;;;;;2.33;2.33;;;;;15.62;65.88;-19627.38;5053210;28;45511;-74
2022/11/03 06:56:42;;;;;;;;;2.67;2.67;;;;;15.93;65.70;-19635.56;5051817;28;45587;-74
2022/11/03 06:59:13;;;;;;;;;4.00;2.00;;;;;16.06;65.50;-19638.91;5055710;28;45452;-74
2022/11/03 07:01:38;;;;;;;;;2.00;2.00;;;;;15.85;65.55;-19633.41;5051499;28;45458;-74
2022/11/03 07:04:28;;;;;;;;;4.67;3.00;;;;;16.07;65.70;-19639.03;5053370;28;46766;-74
2022/11/03 07:06:58;;;;;;;;;2.00;2.00;;;;;16.01;65.82;-19637.56;5051682;28;45519;-74
2022/11/03 07:09:27;;;;;;;;;4.33;2.00;;;;;15.87;65.73;-19633.94;5055734;28;45462;-74
2022/11/03 07:11:56;;;;;;;;;2.00;2.00;;;;;15.85;65.55;-19633.28;5036898;28;46774;-73
2022/11/03 07:14:26;;;;;;;;;2.67;2.67;;;;;16.07;65.86;-19639.03;5054128;28;46409;-73
2022/11/03 07:16:54;;;;;;;;;5.33;4.00;;;;;15.98;65.27;-19636.91;5056246;28;45433;-73
2022/11/03 07:19:23;;;;;;;;;2.33;2.33;;;;;16.06;65.63;-19638.78;5056358;28;45472;-73
2022/11/03 07:21:53;;;;;;;;;2.00;2.00;;;;;16.11;65.28;-19640.25;5056002;28;45375;-73
2022/11/03 07:24:28;;;;;;;;;3.00;3.00;;;;;16.14;65.45;-19640.91;5037278;28;46832;-74
2022/11/03 07:27:07;;;;;;;;;6.33;3.00;;;;;16.12;65.42;-19640.38;5055602;28;45509;-73
2022/11/03 07:29:33;;;;;;;;;2.67;2.67;;;;;16.12;65.40;-19640.38;5054929;28;45497;-73
2022/11/03 07:31:59;;;;;;;;;3.00;2.33;;;;;16.04;65.25;-19638.38;5038636;28;45569;-73
2022/11/03 07:34:30;;;;;;;;;4.67;3.00;;;;;16.08;65.22;-19639.31;5052547;28;45999;-73
2022/11/03 07:36:56;;;;;;;;;4.00;3.00;;;;;15.44;66.41;-19622.69;5053685;28;45469;-74
2022/11/03 07:39:22;;;;;;;;;3.00;3.00;;;;;15.51;66.60;-19624.44;5052963;28;45602;-73
2022/11/03 07:41:49;;;;;;;;;1.33;1.33;;;;;15.39;66.71;-19621.34;5054547;28;45458;-73
2022/11/03 07:44:19;;;;;;;;;7.00;4.00;;;;;15.48;67.18;-19623.63;5053631;28;45542;-74
2022/11/03 07:46:45;;;;;;;;;3.33;3.00;;;;;15.35;67.02;-19620.41;5034791;28;45443;-74
2022/11/03 07:49:25;;;;;;;;;2.67;2.33;;;;;15.31;67.09;-19619.19;5054527;28;45285;-74
2022/11/03 07:51:51;;;;;;;;;2.00;2.00;;;;;15.50;66.84;-19624.16;5053960;28;45472;-76
2022/11/03 07:54:22;;;;;;;;;3.67;3.67;;;;;15.51;66.84;-19624.44;5053101;28;45559;-76
2022/11/03 07:57:10;;;;;;;;;5.00;3.00;;;;;15.53;66.67;-19624.97;5056043;28;45464;-75
2022/11/03 07:59:41;;;;;;;;;3.00;3.00;;;;;15.45;66.56;-19622.81;5057039;28;45350;-76
2022/11/03 08:02:32;;;;;;;;;2.33;2.33;;;;;15.58;66.26;-19626.44;5057910;28;45448;-76
2022/11/03 08:04:58;;;;;;;;;3.00;3.00;;;;;15.35;66.29;-19620.25;5037940;28;47348;-77
2022/11/03 08:07:24;;;;;;;;;7.67;2.00;;;;;15.60;66.47;-19626.97;5038059;28;45366;-77
2022/11/03 08:09:50;;;;;;;;;3.67;2.00;;;;;15.64;66.14;-19627.91;5057921;28;45333;-76
2022/11/03 08:12:15;;;;;;;;;2.67;2.67;;;;;15.65;65.84;-19628.03;5053698;28;45434;-76
2022/11/03 08:14:41;;;;;;;;;2.00;2.00;;;;;15.66;66.22;-19628.31;5057748;28;45413;-76
2022/11/03 08:17:06;;;;;;;;;2.00;2.00;;;;;15.53;65.99;-19624.97;5046403;28;45319;-77
2022/11/03 08:19:32;;;;;;;;;4.00;2.33;;;;;15.77;65.88;-19631.41;5057323;28;45503;-77
2022/11/03 08:21:57;;;;;;;;;4.33;3.00;;;;;15.59;65.58;-19626.56;5037840;28;45698;-77
2022/11/03 08:24:23;;;;;;;;;3.33;2.00;;;;;15.80;65.40;-19632.22;5056465;28;47182;-76
2022/11/03 08:26:48;;;;;;;;;6.00;3.67;;;;;15.87;65.43;-19633.94;5036168;28;45326;-77
2022/11/03 08:29:16;;;;;;;;;2.00;0.33;;;;;15.82;65.42;-19632.59;5052019;28;45487;-76
2022/11/03 08:31:41;;;;;;;;;5.33;3.33;;;;;15.89;65.08;-19634.34;5064243;28;45310;-76
2022/11/03 08:34:07;;;;;;;;;3.00;3.00;;;;;15.94;64.95;-19635.69;5058369;28;46073;-76
2022/11/03 08:36:32;;;;;;;;;3.00;3.00;;;;;15.91;65.27;-19635.03;5056637;28;45471;-76
2022/11/03 08:38:58;;;;;;;;;3.00;3.00;;;;;16.00;65.03;-19637.31;5038463;28;45681;-77
2022/11/03 08:41:23;;;;;;;;;2.00;2.00;;;;;16.00;64.66;-19637.44;5059256;28;45447;-76
2022/11/03 08:43:48;;;;;;;;;2.00;2.00;;;;;15.94;64.38;-19635.69;5057929;28;45341;-76
2022/11/03 08:46:14;;;;;;;;;4.00;2.00;;;;;15.99;64.26;-19637.03;5055654;28;45365;-77
2022/11/03 08:48:39;;;;;;;;;2.33;2.33;;;;;15.98;64.61;-19636.75;5056386;28;45531;-76
2022/11/03 08:51:06;;;;;;;;;2.33;2.33;;;;;15.86;64.38;-19633.56;5057124;28;45513;-77
2022/11/03 08:53:33;;;;;;;;;2.00;1.67;;;;;15.94;64.53;-19635.69;5058135;28;47321;-77
2022/11/03 08:55:58;;;;;;;;;4.00;3.00;;;;;15.76;65.02;-19631.13;5058453;28;45467;-76
2022/11/03 08:58:23;;;;;;;;;3.00;3.00;;;;;15.97;64.25;-19636.50;5057949;28;45474;-77
2022/11/03 09:00:49;;;;;;;;;3.00;2.00;;;;;15.99;64.38;-19637.16;5057106;28;45459;-77
2022/11/03 09:03:14;;;;;;;;;4.33;2.67;;;;;16.02;64.61;-19637.97;5019472;28;47642;-76
2022/11/03 09:05:40;;;;;;;;;2.33;2.33;;;;;15.66;64.02;-19628.31;5054461;28;45408;-76
2022/11/03 09:08:05;;;;;;;;;5.00;3.00;;;;;16.05;64.58;-19638.63;5055629;28;45507;-76
2022/11/03 09:10:31;;;;;;;;;2.33;2.33;;;;;15.75;64.34;-19630.72;5055374;28;45394;-72
2022/11/03 09:12:56;;;;;;;;;3.00;3.00;;;;;16.09;64.13;-19639.59;5055873;28;45571;-72
2022/11/03 09:15:21;;;;;;;;;3.00;3.00;;;;;16.13;64.59;-19640.66;5054400;28;45500;-71
2022/11/03 09:17:47;;;;;;;;;3.33;2.00;;;;;16.01;63.93;-19637.56;5056983;28;45954;-71
2022/11/03 09:20:12;;;;;;;;;2.33;2.33;;;;;16.17;64.06;-19641.72;5055292;28;45454;-71
2022/11/03 09:22:38;;;;;;;;;3.00;3.00;;;;;16.19;63.78;-19642.41;5055499;28;45476;-71
2022/11/03 09:25:04;;;;;;;;;2.67;2.33;;;;;16.13;64.09;-19640.78;5055197;28;45563;-72
2022/11/03 09:27:30;;;;;;;;;3.67;3.67;;;;;16.11;64.11;-19640.25;5055930;28;45481;-71
2022/11/03 09:29:56;;;;;;;;;2.33;2.33;;;;;16.24;63.75;-19643.59;5058029;28;45270;-71
2022/11/03 09:32:21;;;;;;;;;3.00;2.00;;;;;16.26;64.06;-19644.13;5064138;28;45533;-71
2022/11/03 09:34:47;;;;;;;;;4.00;2.00;;;;;16.01;63.76;-19637.72;5036088;28;45433;-71
2022/11/03 09:37:12;;;;;;;;;4.00;2.33;;;;;16.28;63.79;-19644.66;5049706;28;45334;-71
2022/11/03 09:39:37;;;;;;;;;3.33;3.33;;;;;16.35;63.62;-19646.53;5054164;28;45504;-71
2022/11/03 09:42:04;;;;;;;;;2.00;2.00;;;;;16.36;63.33;-19646.81;5055372;28;46072;-71
2022/11/03 09:44:35;;;;;;;;;2.33;2.33;;;;;16.39;63.52;-19647.50;5053632;28;45445;-71
2022/11/03 09:47:02;;;;;;;;;4.33;2.33;;;;;16.32;63.20;-19645.75;5055008;28;45301;-71
2022/11/03 09:49:30;;;;;;;;;2.33;2.33;;;;;16.32;62.94;-19645.75;5054584;28;45509;-72
2022/11/03 09:51:56;;;;;;;;;2.00;2.00;;;;;16.50;63.14;-19650.28;5053781;28;45631;-71
2022/11/03 09:54:22;;;;;;;;;0.00;0.00;;;;;16.52;62.73;-19650.84;5037013;28;45439;-71
2022/11/03 09:56:47;;;;;;;;;4.67;2.33;;;;;16.57;62.89;-19652.16;5056873;28;45375;-71
2022/11/03 09:59:19;;;;;;;;;2.00;2.00;;;;;16.63;62.58;-19653.91;5020913;28;45452;-72
2022/11/03 10:01:48;;;;;;;;;4.00;3.00;;;;;16.71;62.19;-19655.78;5054493;28;45516;-71
2022/11/03 10:04:15;;;;;;;;;2.67;2.67;;;;;16.79;62.79;-19658.06;5055193;28;45500;-73
2022/11/03 10:06:40;;;;;;;;;4.00;2.00;;;;;16.73;62.35;-19656.31;5053229;28;45991;-71
2022/11/03 10:09:14;;;;;;;;;2.00;2.00;;;;;16.75;61.94;-19656.88;5054397;28;45489;-77
2022/11/03 10:11:40;;;;;;;;;2.33;2.33;;;;;16.69;61.90;-19655.38;5055372;28;45568;-74
2022/11/03 10:14:11;;;;;;;;;3.33;2.00;;;;;16.77;61.72;-19657.53;5017618;28;46030;-73
2022/11/03 10:16:38;;;;;;;;;2.00;2.00;;;;;16.79;61.76;-19658.06;5054555;28;45564;-73
2022/11/03 10:19:04;;;;;;;;;2.00;2.00;;;;;16.80;62.36;-19658.22;5057103;28;45483;-73
2022/11/03 10:21:32;;;;;;;;;2.33;2.33;;;;;16.92;61.79;-19661.28;5057508;28;46022;-73
2022/11/03 10:23:58;;;;;;;;;3.00;2.00;;;;;16.92;61.87;-19661.41;5057424;28;45319;-74
2022/11/03 10:26:23;;;;;;;;;3.00;2.00;;;;;17.21;62.02;-19669.06;5051070;28;45472;-73
2022/11/03 10:29:03;;;;;;;;;1.00;1.00;;;;;17.38;61.29;-19673.34;5049784;28;45609;-75
2022/11/03 10:31:39;;;;;;;;;3.00;3.00;;;;;17.38;60.97;-19673.47;5053311;28;46207;-72
2022/11/03 10:34:25;;;;;;;;;2.00;2.00;;;;;17.57;60.63;-19678.41;5054669;28;45559;-72
2022/11/03 10:37:21;;;;;;;;;2.00;2.00;;;;;17.61;60.42;-19679.34;5049664;28;45366;-73
2022/11/03 10:39:51;;;;;;;;;4.33;3.00;;;;;17.52;60.10;-19677.06;5050048;28;45756;-72
2022/11/03 10:42:29;;;;;;;;;3.33;3.33;;;;;17.76;60.04;-19683.22;5039782;28;48519;-72
2022/11/03 10:45:16;;;;;;;;;3.00;1.00;;;;;17.63;60.21;-19679.88;5052162;28;45750;-72
2022/11/03 10:47:42;;;;;;;;;2.00;2.00;;;;;17.88;59.50;-19686.56;5053576;28;45329;-72
2022/11/03 10:50:21;;;;;;;;;1.00;1.00;;;;;17.68;59.16;-19681.34;5060049;28;45494;-72
2022/11/03 10:52:46;;;;;;;;;2.67;1.00;;;;;17.69;58.90;-19681.63;5049645;28;45492;-72
2022/11/03 10:55:12;;;;;;;;;3.00;2.25;;;;;17.71;58.81;-19682.03;5055076;28;45485;-72
2022/11/03 10:57:38;;;;;;;;;1.00;1.00;;;;;17.89;59.47;-19686.84;5054063;28;46011;-72
2022/11/03 11:00:04;;;;;;;;;2.00;2.00;;;;;18.00;58.98;-19689.66;5055762;28;45561;-72
2022/11/03 11:02:31;;;;;;;;;2.00;1.00;;;;;17.99;59.07;-19689.38;5054077;28;47664;-72
2022/11/03 11:05:00;;;;;;;;;0.00;0.00;;;;;18.00;58.59;-19689.66;5054076;28;45426;-72
2022/11/03 11:07:38;;;;;;;;;1.33;1.33;;;;;17.85;59.26;-19685.66;5057107;28;45432;-72
2022/11/03 11:10:07;;;;;;;;;2.00;2.00;;;;;18.07;59.42;-19691.53;5053845;28;45495;-73
2022/11/03 11:12:33;;;;;;;;;2.33;2.33;;;;;18.10;59.15;-19692.19;5028148;28;47451;-74
2022/11/03 11:15:06;;;;;;;;;1.00;1.00;;;;;18.09;58.42;-19691.94;5053819;28;45360;-72
2022/11/03 11:17:37;;;;;;;;;2.75;1.00;;;;;18.06;58.58;-19691.13;5053780;28;45460;-74
2022/11/03 11:20:18;;;;;;;;;1.00;1.00;;;;;18.00;59.30;-19689.66;5052799;28;45484;-74
2022/11/03 11:22:44;;;;;;;;;1.67;1.67;;;;;17.99;59.23;-19689.38;5047141;28;45571;-73
2022/11/03 11:25:10;;;;;;;;;2.00;2.00;;;;;18.02;60.15;-19690.06;5056250;28;45661;-74
2022/11/03 11:27:35;;;;;;;;;3.00;3.00;;;;;18.06;60.96;-19691.13;5049710;28;45540;-74
2022/11/03 11:30:03;;;;;;;;;2.00;2.00;;;;;17.96;60.87;-19688.44;5034606;28;45552;-74
2022/11/03 11:32:35;;;;;;;;;2.00;2.00;;;;;18.00;60.94;-19689.66;5057428;28;46079;-74
2022/11/03 11:35:00;;;;;;;;;2.00;2.00;;;;;17.95;60.76;-19688.19;5053933;28;45417;-74
2022/11/03 11:37:26;;;;;;;;;2.00;1.00;;;;;17.93;61.65;-19687.91;5060008;28;45798;-74
2022/11/03 11:39:51;;;;;;;;;2.33;2.00;;;;;17.88;66.89;-19686.56;5060943;28;45745;-75
2022/11/03 11:42:18;;;;;;;;;3.00;3.00;;;;;17.60;63.18;-19679.22;5035964;28;46003;-74
2022/11/03 11:47:40;;;;;;;;;2.00;2.00;;;;;17.82;64.21;-19684.97;5052958;28;45506;-75
2022/11/03 11:50:05;;;;;;;;;1.33;1.33;;;;;17.80;63.84;-19684.31;5056947;28;45464;-74
2022/11/03 11:52:46;;;;;;;;;2.33;2.33;;;;;17.75;64.57;-19682.97;5056151;28;46000;-72
2022/11/03 11:55:30;;;;;;;;;3.00;3.00;;;;;17.58;64.45;-19678.69;5055179;28;45527;-72